MTS Valour — MPVV8 — position and weather

sailwx.info

Track history (hours):
 
Tides and Currents Weather Stations Pressure Air Temp Water Temp Dewpoint Dewpoint Depression Visibility Wind Speed Wind Dir Waves Ship Positions

MTS Valour

Last reported at 2016-Jul-01 11:33 UTC. Time now 2016-Jul-01 11:46 UTC.
Position N 53°27' W 003°02'.

Length 24 m; draft 2.4 m.

Type: Tug. MMSI: 235040596.

Date/timePositionNaut miles runAvg speedWind from/ knotsBaromVisibWave heightAir tempDewpointWater temp
2016-Jul-01 11:33N 53°27' W 003°02'0 0.0
2016-Jul-01 10:33N 53°27' W 003°02'0 0.0
2016-Jul-01 09:27N 53°27' W 003°02'0 0.0
2016-Jul-01 08:33N 53°27' W 003°02'0 0.0
2016-Jul-01 07:33N 53°27' W 003°02'0 0.0
2016-Jul-01 06:33N 53°27' W 003°02'0 0.0
2016-Jul-01 05:30N 53°27' W 003°02'0 0.0
2016-Jul-01 04:33N 53°27' W 003°02'0 0.0
2016-Jul-01 03:33N 53°27' W 003°02'0 0.0
2016-Jul-01 02:33N 53°27' W 003°02'0 0.0
2016-Jul-01 01:33N 53°27' W 003°02'0 0.0
2016-Jul-01 00:33N 53°27' W 003°02'0 0.0
2016-Jun-30 23:33N 53°27' W 003°02'0 0.0
2016-Jun-30 22:33N 53°27' W 003°02'0 0.0
2016-Jun-30 21:33N 53°27' W 003°02'0 0.5
2016-Jun-30 20:33N 53°27' W 003°01'3 3.2
2016-Jun-30 19:33N 53°29' W 003°05'9 9.0
2016-Jun-30 18:33N 53°31' W 003°20'1111.1
2016-Jun-30 17:33N 53°31' W 003°39'202 5.6
2016-Jun-29 05:27N 50°09' W 003°46'8 9.1
2016-Jun-29 04:33N 50°11' W 003°34'8 8.4
2016-Jun-29 03:33N 50°14' W 003°21'8 7.7
2016-Jun-29 02:33N 50°18' W 003°11'8 7.6
2016-Jun-29 01:33N 50°21' W 002°60'8 7.6
2016-Jun-29 00:33N 50°21' W 002°48'99 9.0
2016-Jun-28 13:33N 50°32' W 000°14'8 8.0
2016-Jun-28 12:33N 50°33' W 000°02'9 8.9
2016-Jun-28 11:33N 50°35' E 000°12'49 9.5
2016-Jun-28 06:25N 50°60' E 001°19'13 7.2
2016-Jun-28 04:33N 51°08' E 001°35'8 8.0
2016-Jun-28 03:33N 51°13' E 001°45'10 9.8
2016-Jun-28 02:33N 51°22' E 001°53'1110.9
2016-Jun-28 01:33N 51°30' E 002°04'1111.0
2016-Jun-28 00:33N 51°38' E 002°16'59 8.4
2016-Jun-27 17:30N 52°03' E 003°43'9 9.4
2016-Jun-27 16:33N 52°01' E 003°58'1111.0
2016-Jun-27 15:33N 51°56' E 004°13'8 7.7
2016-Jun-27 14:32N 51°54' E 004°26'0 0.0
2016-Jun-27 13:32N 51°54' E 004°26'0 0.0
2016-Jun-27 12:32N 51°54' E 004°26'0 0.0
2016-Jun-27 11:32N 51°54' E 004°26'0 0.0
2016-Jun-27 10:32N 51°54' E 004°26'0 0.0
2016-Jun-27 09:32N 51°54' E 004°26'0 0.0
2016-Jun-27 08:32N 51°54' E 004°26'0 0.0
2016-Jun-27 07:29N 51°54' E 004°26'0 0.0
2016-Jun-27 06:32N 51°54' E 004°26'0 0.0
2016-Jun-27 05:32N 51°54' E 004°26'0 0.0
2016-Jun-27 04:32N 51°54' E 004°26'0 0.0
2016-Jun-27 03:32N 51°54' E 004°26'0 0.0
2016-Jun-27 02:32N 51°54' E 004°26'0 0.0
2016-Jun-27 01:32N 51°54' E 004°26'0 0.0
2016-Jun-27 00:32N 51°54' E 004°26'0 0.0
2016-Jun-26 23:32N 51°54' E 004°26'0 0.0
2016-Jun-26 22:32N 51°54' E 004°26'0 0.0
2016-Jun-26 21:32N 51°54' E 004°26'0 0.0
2016-Jun-26 20:32N 51°54' E 004°26'0 0.0
2016-Jun-26 19:32N 51°54' E 004°26'0 0.0
2016-Jun-26 18:32N 51°54' E 004°26'0 0.0
2016-Jun-26 17:32N 51°54' E 004°26'0 0.0
2016-Jun-26 16:32N 51°54' E 004°26'0 0.0
2016-Jun-26 15:32N 51°54' E 004°26'0 0.0
2016-Jun-26 14:32N 51°54' E 004°26'0 0.0
2016-Jun-26 13:32N 51°54' E 004°26'0 0.0
2016-Jun-26 12:32N 51°54' E 004°26'0 0.0
2016-Jun-26 11:32N 51°54' E 004°26'0 0.0
2016-Jun-26 10:32N 51°54' E 004°26'0 0.0
2016-Jun-26 09:32N 51°54' E 004°26'0 0.0
2016-Jun-26 08:32N 51°54' E 004°26'0 0.0
2016-Jun-26 07:32N 51°54' E 004°26'0 0.0
2016-Jun-26 06:32N 51°54' E 004°26'0 0.0
2016-Jun-26 05:32N 51°54' E 004°26'0 0.0
2016-Jun-26 04:32N 51°54' E 004°26'0 0.0
2016-Jun-26 03:32N 51°54' E 004°26'0 0.0
2016-Jun-26 02:32N 51°54' E 004°26'0 0.0
2016-Jun-26 01:32N 51°54' E 004°26'0 0.0
2016-Jun-26 00:32N 51°54' E 004°26'0 0.0
2016-Jun-25 23:32N 51°54' E 004°26'0 0.0
2016-Jun-25 22:32N 51°54' E 004°26'0 0.0
2016-Jun-25 21:32N 51°54' E 004°26'0 0.0
2016-Jun-25 20:32N 51°54' E 004°26'0 0.0
2016-Jun-25 19:32N 51°54' E 004°26'0 0.0
2016-Jun-25 18:32N 51°54' E 004°26'0 0.0
2016-Jun-25 17:32N 51°54' E 004°26'0 0.0
2016-Jun-25 16:32N 51°54' E 004°26'0 0.0
2016-Jun-25 15:32N 51°54' E 004°26'0 0.0
2016-Jun-25 14:32N 51°54' E 004°26'0 0.0
2016-Jun-25 13:32N 51°54' E 004°26'0 0.0
2016-Jun-25 12:32N 51°54' E 004°26'0 0.0
2016-Jun-25 11:32N 51°54' E 004°26'0 0.0
2016-Jun-25 10:32N 51°54' E 004°26'0 0.0
2016-Jun-25 09:32N 51°54' E 004°26'0 0.0
2016-Jun-25 08:32N 51°54' E 004°26'0 0.0
2016-Jun-25 07:32N 51°54' E 004°26'0 0.0
2016-Jun-25 06:32N 51°54' E 004°26'0 0.0
2016-Jun-25 05:32N 51°54' E 004°26'0 0.0
2016-Jun-25 04:32N 51°54' E 004°26'0 0.0
2016-Jun-25 03:32N 51°54' E 004°26'0 0.0
2016-Jun-25 02:32N 51°54' E 004°26'0 0.0
2016-Jun-25 01:32N 51°54' E 004°26'0 0.0
2016-Jun-25 00:32N 51°54' E 004°26'0 0.0
2016-Jun-24 23:32N 51°54' E 004°26'0 0.0
2016-Jun-24 22:32N 51°54' E 004°26'0 0.0
2016-Jun-24 21:32N 51°54' E 004°26'0 0.0
2016-Jun-24 20:26N 51°54' E 004°26'0 0.0
2016-Jun-24 19:32N 51°54' E 004°26'0 0.0
2016-Jun-24 18:32N 51°54' E 004°26'0 0.0
2016-Jun-24 17:32N 51°54' E 004°26'0 0.0
2016-Jun-24 16:32N 51°54' E 004°26'0 0.0
2016-Jun-24 15:32N 51°54' E 004°26'0 0.0
2016-Jun-24 14:33N 51°54' E 004°26'0 0.0
2016-Jun-24 13:33N 51°54' E 004°26'0 0.0
2016-Jun-24 12:33N 51°54' E 004°26'0 0.0
2016-Jun-24 11:33N 51°54' E 004°26'0 0.0
2016-Jun-24 10:34N 51°54' E 004°26'0 0.0
2016-Jun-24 09:33N 51°54' E 004°26'0 0.0
2016-Jun-24 08:33N 51°54' E 004°26'0 0.0
2016-Jun-24 07:33N 51°54' E 004°26'0 0.0
2016-Jun-24 06:33N 51°54' E 004°26'0 0.0
2016-Jun-24 04:33N 51°54' E 004°26'0 0.0
2016-Jun-24 03:33N 51°54' E 004°26'0 0.0
2016-Jun-24 02:33N 51°54' E 004°26'0 0.0
2016-Jun-24 01:33N 51°54' E 004°26'0 0.0
2016-Jun-24 00:33N 51°54' E 004°26'0 0.0
2016-Jun-23 23:33N 51°54' E 004°26'0 0.0
2016-Jun-23 22:33N 51°54' E 004°26'0 0.0
2016-Jun-23 21:33N 51°54' E 004°26'0 0.0
2016-Jun-23 20:33N 51°54' E 004°26'0 0.0
2016-Jun-23 19:33N 51°54' E 004°26'0 0.0
2016-Jun-23 18:32N 51°54' E 004°26'0 0.0
2016-Jun-23 17:33N 51°54' E 004°26'0 0.0
2016-Jun-23 16:33N 51°54' E 004°26'0 0.0
2016-Jun-23 15:33N 51°54' E 004°26'0 0.0
2016-Jun-23 14:33N 51°54' E 004°26'0 0.0
2016-Jun-23 13:33N 51°54' E 004°26'0 0.0
2016-Jun-23 12:33N 51°54' E 004°26'4 4.2
2016-Jun-23 11:33N 51°54' E 004°19'1 0.6
2016-Jun-23 10:33N 51°54' E 004°18'3 2.9
2016-Jun-23 09:33N 51°55' E 004°14'3 3.3
2016-Jun-23 08:33N 51°57' E 004°10'3 3.0
2016-Jun-23 07:33N 51°59' E 004°06'7 3.4
2016-Jun-23 05:33N 51°58' E 003°55'1 1.5
2016-Jun-23 04:33N 51°60' E 003°54'3 3.3
2016-Jun-23 03:33N 51°60' E 003°48'7 7.0
2016-Jun-23 02:32N 51°58' E 003°37'52 5.2
2016-Jun-22 16:27N 51°35' E 002°21'7 7.8
2016-Jun-22 15:33N 51°30' E 002°13'9 8.7
2016-Jun-22 14:33N 51°24' E 002°04'9 9.0
2016-Jun-22 13:33N 51°17' E 001°55'9 9.2
2016-Jun-22 12:33N 51°10' E 001°45'9 8.8
2016-Jun-22 11:34N 51°03' E 001°36'9 7.1
2016-Jun-22 10:16N 50°56' E 001°26'4 4.9
2016-Jun-22 09:31N 50°53' E 001°24'69 5.7
2016-Jun-21 21:23N 50°20' W 000°12'9 9.4
2016-Jun-21 20:24N 50°19' W 000°27'  
Track history (hours):
 
Tides and Currents Weather Stations Pressure Air Temp Water Temp Dewpoint Dewpoint Depression Visibility Wind Speed Wind Dir Waves Ship Positions

MTS Valour

Last reported at 2016-Jul-01 11:33 UTC. Time now 2016-Jul-01 11:46 UTC.
Position N 53°27' W 003°02'.

Length 24 m; draft 2.4 m.

Type: Tug. MMSI: 235040596.

Date/timePositionNaut miles runAvg speedWind from/ knotsBaromVisibWave heightAir tempDewpointWater temp
2016-Jul-01 11:33N 53°27' W 003°02'0 0.0
2016-Jul-01 10:33N 53°27' W 003°02'0 0.0
2016-Jul-01 09:27N 53°27' W 003°02'0 0.0
2016-Jul-01 08:33N 53°27' W 003°02'0 0.0
2016-Jul-01 07:33N 53°27' W 003°02'0 0.0
2016-Jul-01 06:33N 53°27' W 003°02'0 0.0
2016-Jul-01 05:30N 53°27' W 003°02'0 0.0
2016-Jul-01 04:33N 53°27' W 003°02'0 0.0
2016-Jul-01 03:33N 53°27' W 003°02'0 0.0
2016-Jul-01 02:33N 53°27' W 003°02'0 0.0
2016-Jul-01 01:33N 53°27' W 003°02'0 0.0
2016-Jul-01 00:33N 53°27' W 003°02'0 0.0
2016-Jun-30 23:33N 53°27' W 003°02'0 0.0
2016-Jun-30 22:33N 53°27' W 003°02'0 0.0
2016-Jun-30 21:33N 53°27' W 003°02'0 0.5
2016-Jun-30 20:33N 53°27' W 003°01'3 3.2
2016-Jun-30 19:33N 53°29' W 003°05'9 9.0
2016-Jun-30 18:33N 53°31' W 003°20'1111.1
2016-Jun-30 17:33N 53°31' W 003°39'202 5.6
2016-Jun-29 05:27N 50°09' W 003°46'8 9.1
2016-Jun-29 04:33N 50°11' W 003°34'8 8.4
2016-Jun-29 03:33N 50°14' W 003°21'8 7.7
2016-Jun-29 02:33N 50°18' W 003°11'8 7.6
2016-Jun-29 01:33N 50°21' W 002°60'8 7.6
2016-Jun-29 00:33N 50°21' W 002°48'99 9.0
2016-Jun-28 13:33N 50°32' W 000°14'8 8.0
2016-Jun-28 12:33N 50°33' W 000°02'9 8.9
2016-Jun-28 11:33N 50°35' E 000°12'49 9.5
2016-Jun-28 06:25N 50°60' E 001°19'13 7.2
2016-Jun-28 04:33N 51°08' E 001°35'8 8.0
2016-Jun-28 03:33N 51°13' E 001°45'10 9.8
2016-Jun-28 02:33N 51°22' E 001°53'1110.9
2016-Jun-28 01:33N 51°30' E 002°04'1111.0
2016-Jun-28 00:33N 51°38' E 002°16'59 8.4
2016-Jun-27 17:30N 52°03' E 003°43'9 9.4
2016-Jun-27 16:33N 52°01' E 003°58'1111.0
2016-Jun-27 15:33N 51°56' E 004°13'8 7.7
2016-Jun-27 14:32N 51°54' E 004°26'0 0.0
2016-Jun-27 13:32N 51°54' E 004°26'0 0.0
2016-Jun-27 12:32N 51°54' E 004°26'0 0.0
2016-Jun-27 11:32N 51°54' E 004°26'0 0.0
2016-Jun-27 10:32N 51°54' E 004°26'0 0.0
2016-Jun-27 09:32N 51°54' E 004°26'0 0.0
2016-Jun-27 08:32N 51°54' E 004°26'0 0.0
2016-Jun-27 07:29N 51°54' E 004°26'0 0.0
2016-Jun-27 06:32N 51°54' E 004°26'0 0.0
2016-Jun-27 05:32N 51°54' E 004°26'0 0.0
2016-Jun-27 04:32N 51°54' E 004°26'0 0.0
2016-Jun-27 03:32N 51°54' E 004°26'0 0.0
2016-Jun-27 02:32N 51°54' E 004°26'0 0.0
2016-Jun-27 01:32N 51°54' E 004°26'0 0.0
2016-Jun-27 00:32N 51°54' E 004°26'0 0.0
2016-Jun-26 23:32N 51°54' E 004°26'0 0.0
2016-Jun-26 22:32N 51°54' E 004°26'0 0.0
2016-Jun-26 21:32N 51°54' E 004°26'0 0.0
2016-Jun-26 20:32N 51°54' E 004°26'0 0.0
2016-Jun-26 19:32N 51°54' E 004°26'0 0.0
2016-Jun-26 18:32N 51°54' E 004°26'0 0.0
2016-Jun-26 17:32N 51°54' E 004°26'0 0.0
2016-Jun-26 16:32N 51°54' E 004°26'0 0.0
2016-Jun-26 15:32N 51°54' E 004°26'0 0.0
2016-Jun-26 14:32N 51°54' E 004°26'0 0.0
2016-Jun-26 13:32N 51°54' E 004°26'0 0.0
2016-Jun-26 12:32N 51°54' E 004°26'0 0.0
2016-Jun-26 11:32N 51°54' E 004°26'0 0.0
2016-Jun-26 10:32N 51°54' E 004°26'0 0.0
2016-Jun-26 09:32N 51°54' E 004°26'0 0.0
2016-Jun-26 08:32N 51°54' E 004°26'0 0.0
2016-Jun-26 07:32N 51°54' E 004°26'0 0.0
2016-Jun-26 06:32N 51°54' E 004°26'0 0.0
2016-Jun-26 05:32N 51°54' E 004°26'0 0.0
2016-Jun-26 04:32N 51°54' E 004°26'0 0.0
2016-Jun-26 03:32N 51°54' E 004°26'0 0.0
2016-Jun-26 02:32N 51°54' E 004°26'0 0.0
2016-Jun-26 01:32N 51°54' E 004°26'0 0.0
2016-Jun-26 00:32N 51°54' E 004°26'0 0.0
2016-Jun-25 23:32N 51°54' E 004°26'0 0.0
2016-Jun-25 22:32N 51°54' E 004°26'0 0.0
2016-Jun-25 21:32N 51°54' E 004°26'0 0.0
2016-Jun-25 20:32N 51°54' E 004°26'0 0.0
2016-Jun-25 19:32N 51°54' E 004°26'0 0.0
2016-Jun-25 18:32N 51°54' E 004°26'0 0.0
2016-Jun-25 17:32N 51°54' E 004°26'0 0.0
2016-Jun-25 16:32N 51°54' E 004°26'0 0.0
2016-Jun-25 15:32N 51°54' E 004°26'0 0.0
2016-Jun-25 14:32N 51°54' E 004°26'0 0.0
2016-Jun-25 13:32N 51°54' E 004°26'0 0.0
2016-Jun-25 12:32N 51°54' E 004°26'0 0.0
2016-Jun-25 11:32N 51°54' E 004°26'0 0.0
2016-Jun-25 10:32N 51°54' E 004°26'0 0.0
2016-Jun-25 09:32N 51°54' E 004°26'0 0.0
2016-Jun-25 08:32N 51°54' E 004°26'0 0.0
2016-Jun-25 07:32N 51°54' E 004°26'0 0.0
2016-Jun-25 06:32N 51°54' E 004°26'0 0.0
2016-Jun-25 05:32N 51°54' E 004°26'0 0.0
2016-Jun-25 04:32N 51°54' E 004°26'0 0.0
2016-Jun-25 03:32N 51°54' E 004°26'0 0.0
2016-Jun-25 02:32N 51°54' E 004°26'0 0.0
2016-Jun-25 01:32N 51°54' E 004°26'0 0.0
2016-Jun-25 00:32N 51°54' E 004°26'0 0.0
2016-Jun-24 23:32N 51°54' E 004°26'0 0.0
2016-Jun-24 22:32N 51°54' E 004°26'0 0.0
2016-Jun-24 21:32N 51°54' E 004°26'0 0.0
2016-Jun-24 20:26N 51°54' E 004°26'0 0.0
2016-Jun-24 19:32N 51°54' E 004°26'0 0.0
2016-Jun-24 18:32N 51°54' E 004°26'0 0.0
2016-Jun-24 17:32N 51°54' E 004°26'0 0.0
2016-Jun-24 16:32N 51°54' E 004°26'0 0.0
2016-Jun-24 15:32N 51°54' E 004°26'0 0.0
2016-Jun-24 14:33N 51°54' E 004°26'0 0.0
2016-Jun-24 13:33N 51°54' E 004°26'0 0.0
2016-Jun-24 12:33N 51°54' E 004°26'0 0.0
2016-Jun-24 11:33N 51°54' E 004°26'0 0.0
2016-Jun-24 10:34N 51°54' E 004°26'0 0.0
2016-Jun-24 09:33N 51°54' E 004°26'0 0.0
2016-Jun-24 08:33N 51°54' E 004°26'0 0.0
2016-Jun-24 07:33N 51°54' E 004°26'0 0.0
2016-Jun-24 06:33N 51°54' E 004°26'0 0.0
2016-Jun-24 04:33N 51°54' E 004°26'0 0.0
2016-Jun-24 03:33N 51°54' E 004°26'0 0.0
2016-Jun-24 02:33N 51°54' E 004°26'0 0.0
2016-Jun-24 01:33N 51°54' E 004°26'0 0.0
2016-Jun-24 00:33N 51°54' E 004°26'0 0.0
2016-Jun-23 23:33N 51°54' E 004°26'0 0.0
2016-Jun-23 22:33N 51°54' E 004°26'0 0.0
2016-Jun-23 21:33N 51°54' E 004°26'0 0.0
2016-Jun-23 20:33N 51°54' E 004°26'0 0.0
2016-Jun-23 19:33N 51°54' E 004°26'0 0.0
2016-Jun-23 18:32N 51°54' E 004°26'0 0.0
2016-Jun-23 17:33N 51°54' E 004°26'0 0.0
2016-Jun-23 16:33N 51°54' E 004°26'0 0.0
2016-Jun-23 15:33N 51°54' E 004°26'0 0.0
2016-Jun-23 14:33N 51°54' E 004°26'0 0.0
2016-Jun-23 13:33N 51°54' E 004°26'0 0.0
2016-Jun-23 12:33N 51°54' E 004°26'4 4.2
2016-Jun-23 11:33N 51°54' E 004°19'1 0.6
2016-Jun-23 10:33N 51°54' E 004°18'3 2.9
2016-Jun-23 09:33N 51°55' E 004°14'3 3.3
2016-Jun-23 08:33N 51°57' E 004°10'3 3.0
2016-Jun-23 07:33N 51°59' E 004°06'7 3.4
2016-Jun-23 05:33N 51°58' E 003°55'1 1.5
2016-Jun-23 04:33N 51°60' E 003°54'3 3.3
2016-Jun-23 03:33N 51°60' E 003°48'7 7.0
2016-Jun-23 02:32N 51°58' E 003°37'52 5.2
2016-Jun-22 16:27N 51°35' E 002°21'7 7.8
2016-Jun-22 15:33N 51°30' E 002°13'9 8.7
2016-Jun-22 14:33N 51°24' E 002°04'9 9.0
2016-Jun-22 13:33N 51°17' E 001°55'9 9.2
2016-Jun-22 12:33N 51°10' E 001°45'9 8.8
2016-Jun-22 11:34N 51°03' E 001°36'9 7.1
2016-Jun-22 10:16N 50°56' E 001°26'4 4.9
2016-Jun-22 09:31N 50°53' E 001°24'69 5.7
2016-Jun-21 21:23N 50°20' W 000°12'9 9.4
2016-Jun-21 20:24N 50°19' W 000°27'  

Dump ship's entire track history